Aigle Des Mers — FO4883 — position and weather

sailwx.info

Track history (hours):
 
Tides and Currents Weather Stations Pressure Air Temp Water Temp Dewpoint Dewpoint Depression Visibility Wind Speed Wind Dir Waves Ship Positions

Aigle Des Mers

Last reported at 2016-Jun-29 01:33 UTC. Time now 2016-Jun-29 02:08 UTC.
Position N 48°06' W 004°19'.

Type: Fishing. MMSI: 227318010.

Date/timePositionNaut miles runAvg speedWind from/ knotsBaromVisibWave heightAir tempDewpointWater temp
2016-Jun-29 01:33N 48°06' W 004°19'3 3.0
2016-Jun-29 00:33N 48°07' W 004°23'6 6.4
2016-Jun-28 23:33N 48°07' W 004°33'1 1.3
2016-Jun-28 22:33N 48°07' W 004°35'8 7.8
2016-Jun-28 21:33N 48°07' W 004°23'3 0.1
2016-Jun-28 02:33N 48°06' W 004°19'2 2.4
2016-Jun-28 01:33N 48°08' W 004°21'7 7.4
2016-Jun-28 00:33N 48°09' W 004°32'8 7.8
2016-Jun-27 23:33N 48°13' W 004°42'4 4.4
2016-Jun-27 22:33N 48°16' W 004°46'4 4.1
2016-Jun-27 21:32N 48°17' W 004°52'2 2.2
2016-Jun-27 20:34N 48°17' W 004°55'8 8.0
2016-Jun-27 19:34N 48°11' W 004°46'8 8.4
2016-Jun-27 18:33N 48°09' W 004°34'8 7.8
2016-Jun-27 17:33N 48°07' W 004°22'2 0.6
2016-Jun-27 13:29N 48°06' W 004°19'0 0.0
2016-Jun-27 01:24N 48°06' W 004°19'6 6.8
2016-Jun-27 00:34N 48°11' W 004°24'5 5.5
2016-Jun-26 23:34N 48°07' W 004°29'8 8.1
2016-Jun-26 22:34N 48°10' W 004°40'9 9.1
2016-Jun-26 21:34N 48°16' W 004°50'2 1.5
2016-Jun-26 20:33N 48°16' W 004°53'8 8.2
2016-Jun-26 19:33N 48°11' W 004°43'11 8.3
2016-Jun-26 18:11N 48°08' W 004°26'5 7.4
2016-Jun-26 17:30N 48°06' W 004°19'  
2016-Jun-23 15:33N 48°06' W 004°19'0 0.0
2016-Jun-23 14:33N 48°06' W 004°19'0 0.0
2016-Jun-23 13:23N 48°06' W 004°19'  
Track history (hours):
 
Tides and Currents Weather Stations Pressure Air Temp Water Temp Dewpoint Dewpoint Depression Visibility Wind Speed Wind Dir Waves Ship Positions

Aigle Des Mers

Last reported at 2016-Jun-29 01:33 UTC. Time now 2016-Jun-29 02:08 UTC.
Position N 48°06' W 004°19'.

Type: Fishing. MMSI: 227318010.

Date/timePositionNaut miles runAvg speedWind from/ knotsBaromVisibWave heightAir tempDewpointWater temp
2016-Jun-29 01:33N 48°06' W 004°19'3 3.0
2016-Jun-29 00:33N 48°07' W 004°23'6 6.4
2016-Jun-28 23:33N 48°07' W 004°33'1 1.3
2016-Jun-28 22:33N 48°07' W 004°35'8 7.8
2016-Jun-28 21:33N 48°07' W 004°23'3 0.1
2016-Jun-28 02:33N 48°06' W 004°19'2 2.4
2016-Jun-28 01:33N 48°08' W 004°21'7 7.4
2016-Jun-28 00:33N 48°09' W 004°32'8 7.8
2016-Jun-27 23:33N 48°13' W 004°42'4 4.4
2016-Jun-27 22:33N 48°16' W 004°46'4 4.1
2016-Jun-27 21:32N 48°17' W 004°52'2 2.2
2016-Jun-27 20:34N 48°17' W 004°55'8 8.0
2016-Jun-27 19:34N 48°11' W 004°46'8 8.4
2016-Jun-27 18:33N 48°09' W 004°34'8 7.8
2016-Jun-27 17:33N 48°07' W 004°22'2 0.6
2016-Jun-27 13:29N 48°06' W 004°19'0 0.0
2016-Jun-27 01:24N 48°06' W 004°19'6 6.8
2016-Jun-27 00:34N 48°11' W 004°24'5 5.5
2016-Jun-26 23:34N 48°07' W 004°29'8 8.1
2016-Jun-26 22:34N 48°10' W 004°40'9 9.1
2016-Jun-26 21:34N 48°16' W 004°50'2 1.5
2016-Jun-26 20:33N 48°16' W 004°53'8 8.2
2016-Jun-26 19:33N 48°11' W 004°43'11 8.3
2016-Jun-26 18:11N 48°08' W 004°26'5 7.4
2016-Jun-26 17:30N 48°06' W 004°19'  
2016-Jun-23 15:33N 48°06' W 004°19'0 0.0
2016-Jun-23 14:33N 48°06' W 004°19'0 0.0
2016-Jun-23 13:23N 48°06' W 004°19'  

Dump ship's entire track history